Aeroporto :
LOGIN :

Iscrizione | Disclaimer

   EN    FR    IT 

 










Sommario :    VFR   VFR Marginale   IFR   IFR Intensivo   IFR Molto Intensivo
Visibilità : 
Base nubi : 
>= 8 km
>= 3000ft
5 / 8 km
1000 / 3000 ft
1500m / 5 km
500 / 1000 ft
800 / 1500m
200 / 500 ft
< 800m
< 200 ft
Simboli :   Temporali  Nebbia  Neve Forte  Precipitazioni Forti  Vento > 20 kt
SIGMETs :   Varie  Temporali  Ghiacco  Turbolenza  Onda orograficha  Ceneri Vulcaniche






- Altitudine del aeroporto : 2001 ft
- Codice IATA : MAD


LEMD - Madrid

ULTIMO METAR :
  • 242300Z 34003KT CAVOK 06/02 Q1023 NOSIG

METARs OBSOLETI :
  • 242230Z 01004KT CAVOK 08/02 Q1023 NOSIG
  • 242200Z 36001KT CAVOK 08/03 Q1023 NOSIG
  • 242130Z VRB02KT CAVOK 08/02 Q1023 NOSIG
  • 242100Z 02004KT 350V130 CAVOK 11/02 Q1023 NOSIG
  • 242030Z VRB02KT CAVOK 12/02 Q1023 NOSIG
  • 242000Z 20003KT 170V240 CAVOK 16/02 Q1023 NOSIG

TAF TAF LEMD
Valido dal 24 a 18 ore il 26 a 00 ore UTC


241700Z 2418/2524 VRB05KT CAVOK TX18/2418Z TN01/2507Z
BECMG 2510/2512 28010KT



MetMap, La meteo Aeronautica in un colpo d'occhio ! - Copyright ORBIFLY Dicembre 2007 - Disclaimer

ORBIFLY MET'MAP TEAM :

Programmazione e sviluppo : Alexandra Zaïnal
Concezione : Baudouin d'Aumeries
Aiuto per la programmazione : Marc-Olivier Méhu
Supporto tecnico e logistico : Manuel Goepfert
Aiuto per la traduzione : Arnaldo La Scala

Contatto : metmap@orbifly.com




FONTI E CREDITI :

   NOAA